Gandhi — A8OK8 — position and weather

sailwx.info

Track history (hours):
 
Tides and Currents Weather Stations Pressure Air Temp Water Temp Dewpoint Dewpoint Depression Visibility Wind Speed Wind Dir Waves Ship Positions

Gandhi

Last reported at 2014-Aug-01 12:20 UTC. Time now 2014-Aug-02 02:50 UTC.
Position N 34°44' E 034°14'.

Length 180 m; draft 11 m.

Type: Ship. MMSI: 636013645.

Date/timePositionNaut miles runAvg speedWind from/ knotsBaromVisibWave heightAir tempDewpointWater temp
2014-Aug-01 12:20N 34°44' E 034°14'8013.1
2014-Aug-01 06:12N 33°30' E 033°36'1412.9
2014-Aug-01 05:07N 33°17' E 033°30'4813.4
2014-Aug-01 01:31N 32°32' E 033°08'1413.6
2014-Aug-01 00:29N 32°20' E 033°01'1713.4
2014-Jul-31 23:13N 32°04' E 032°53'3412.4
2014-Jul-31 20:30N 31°38' E 032°29'3110.4
2014-Jul-31 17:31N 31°08' E 032°19'52 3.2
2014-Jul-31 01:20N 30°16' E 032°29'16 8.8
2014-Jul-30 23:33N 30°01' E 032°35'7 7.4
2014-Jul-30 22:33N 29°54' E 032°31'  
Track history (hours):
 
Tides and Currents Weather Stations Pressure Air Temp Water Temp Dewpoint Dewpoint Depression Visibility Wind Speed Wind Dir Waves Ship Positions

Gandhi

Last reported at 2014-Aug-01 12:20 UTC. Time now 2014-Aug-02 02:50 UTC.
Position N 34°44' E 034°14'.

Length 180 m; draft 11 m.

Type: Ship. MMSI: 636013645.

Date/timePositionNaut miles runAvg speedWind from/ knotsBaromVisibWave heightAir tempDewpointWater temp
2014-Aug-01 12:20N 34°44' E 034°14'8013.1
2014-Aug-01 06:12N 33°30' E 033°36'1412.9
2014-Aug-01 05:07N 33°17' E 033°30'4813.4
2014-Aug-01 01:31N 32°32' E 033°08'1413.6
2014-Aug-01 00:29N 32°20' E 033°01'1713.4
2014-Jul-31 23:13N 32°04' E 032°53'3412.4
2014-Jul-31 20:30N 31°38' E 032°29'3110.4
2014-Jul-31 17:31N 31°08' E 032°19'52 3.2
2014-Jul-31 01:20N 30°16' E 032°29'16 8.8
2014-Jul-30 23:33N 30°01' E 032°35'7 7.4
2014-Jul-30 22:33N 29°54' E 032°31'  

Dump ship's entire track history